sensor_id;sensor_type;location;lat;lon;timestamp;temperature;humidity
39899;DHT22;25571;47.876;10.642;2022-12-10T00:01:48;3.10;99.90
39899;DHT22;25571;47.876;10.642;2022-12-10T00:04:14;3.00;99.90
39899;DHT22;25571;47.876;10.642;2022-12-10T00:06:41;3.10;99.90
39899;DHT22;25571;47.876;10.642;2022-12-10T00:09:10;3.20;99.90
39899;DHT22;25571;47.876;10.642;2022-12-10T00:11:37;3.10;99.90
39899;DHT22;25571;47.876;10.642;2022-12-10T00:14:03;3.10;99.90
39899;DHT22;25571;47.876;10.642;2022-12-10T00:16:29;3.20;99.90
39899;DHT22;25571;47.876;10.642;2022-12-10T00:18:56;3.20;99.90
39899;DHT22;25571;47.876;10.642;2022-12-10T00:21:27;3.10;99.90
39899;DHT22;25571;47.876;10.642;2022-12-10T00:23:53;3.20;99.90
39899;DHT22;25571;47.876;10.642;2022-12-10T00:26:21;3.20;99.90
39899;DHT22;25571;47.876;10.642;2022-12-10T00:28:48;3.10;99.90
39899;DHT22;25571;47.876;10.642;2022-12-10T00:31:17;3.00;99.90
39899;DHT22;25571;47.876;10.642;2022-12-10T00:33:44;3.10;99.90
39899;DHT22;25571;47.876;10.642;2022-12-10T00:38:39;2.90;99.90
39899;DHT22;25571;47.876;10.642;2022-12-10T00:41:06;2.90;99.90
39899;DHT22;25571;47.876;10.642;2022-12-10T00:43:31;3.00;99.90
39899;DHT22;25571;47.876;10.642;2022-12-10T00:45:57;2.80;99.90
39899;DHT22;25571;47.876;10.642;2022-12-10T00:48:23;2.80;99.90
39899;DHT22;25571;47.876;10.642;2022-12-10T00:51:04;2.80;99.90
39899;DHT22;25571;47.876;10.642;2022-12-10T00:53:31;2.90;99.90
39899;DHT22;25571;47.876;10.642;2022-12-10T00:55:58;2.90;99.90
39899;DHT22;25571;47.876;10.642;2022-12-10T00:58:27;2.90;99.90
39899;DHT22;25571;47.876;10.642;2022-12-10T01:00:53;2.80;99.90
39899;DHT22;25571;47.876;10.642;2022-12-10T01:03:18;2.90;99.90
39899;DHT22;25571;47.876;10.642;2022-12-10T01:05:44;2.90;99.90
39899;DHT22;25571;47.876;10.642;2022-12-10T01:08:11;2.90;99.90
39899;DHT22;25571;47.876;10.642;2022-12-10T01:10:37;2.90;99.90
39899;DHT22;25571;47.876;10.642;2022-12-10T01:13:04;2.90;99.90
39899;DHT22;25571;47.876;10.642;2022-12-10T01:15:30;3.00;99.90
39899;DHT22;25571;47.876;10.642;2022-12-10T01:17:55;2.90;99.90
39899;DHT22;25571;47.876;10.642;2022-12-10T01:20:21;2.90;99.90
39899;DHT22;25571;47.876;10.642;2022-12-10T01:22:46;2.90;99.90
39899;DHT22;25571;47.876;10.642;2022-12-10T01:25:12;2.90;99.90
39899;DHT22;25571;47.876;10.642;2022-12-10T01:27:38;2.90;99.90
39899;DHT22;25571;47.876;10.642;2022-12-10T01:30:03;2.90;99.90
39899;DHT22;25571;47.876;10.642;2022-12-10T01:32:29;2.90;99.90
39899;DHT22;25571;47.876;10.642;2022-12-10T01:34:56;2.90;99.90
39899;DHT22;25571;47.876;10.642;2022-12-10T01:37:21;3.00;99.90
39899;DHT22;25571;47.876;10.642;2022-12-10T01:39:47;2.90;99.90
39899;DHT22;25571;47.876;10.642;2022-12-10T01:42:13;2.80;99.90
39899;DHT22;25571;47.876;10.642;2022-12-10T01:47:08;2.70;99.90
39899;DHT22;25571;47.876;10.642;2022-12-10T01:49:37;2.70;99.90
39899;DHT22;25571;47.876;10.642;2022-12-10T01:52:04;2.70;99.90
39899;DHT22;25571;47.876;10.642;2022-12-10T01:54:34;2.70;99.90
39899;DHT22;25571;47.876;10.642;2022-12-10T01:57:17;2.80;99.90
39899;DHT22;25571;47.876;10.642;2022-12-10T01:59:45;2.70;99.90
39899;DHT22;25571;47.876;10.642;2022-12-10T02:05:29;2.70;99.90
39899;DHT22;25571;47.876;10.642;2022-12-10T02:13:55;2.60;99.90
39899;DHT22;25571;47.876;10.642;2022-12-10T02:16:36;2.50;99.90
39899;DHT22;25571;47.876;10.642;2022-12-10T02:19:39;2.50;99.90
39899;DHT22;25571;47.876;10.642;2022-12-10T02:22:07;2.60;99.90
39899;DHT22;25571;47.876;10.642;2022-12-10T02:24:36;2.60;99.90
39899;DHT22;25571;47.876;10.642;2022-12-10T02:27:16;2.60;99.90
39899;DHT22;25571;47.876;10.642;2022-12-10T02:29:44;2.60;99.90
39899;DHT22;25571;47.876;10.642;2022-12-10T02:32:14;2.60;99.90
39899;DHT22;25571;47.876;10.642;2022-12-10T02:34:46;2.60;99.90
39899;DHT22;25571;47.876;10.642;2022-12-10T02:37:24;2.60;99.90
39899;DHT22;25571;47.876;10.642;2022-12-10T02:39:54;2.70;99.90
39899;DHT22;25571;47.876;10.642;2022-12-10T02:42:21;2.60;99.90
39899;DHT22;25571;47.876;10.642;2022-12-10T02:44:48;2.60;99.90
39899;DHT22;25571;47.876;10.642;2022-12-10T02:47:16;2.30;99.90
39899;DHT22;25571;47.876;10.642;2022-12-10T02:49:43;2.30;99.90
39899;DHT22;25571;47.876;10.642;2022-12-10T02:52:13;2.30;99.90
39899;DHT22;25571;47.876;10.642;2022-12-10T02:54:40;2.30;99.90
39899;DHT22;25571;47.876;10.642;2022-12-10T03:02:46;2.40;99.90
39899;DHT22;25571;47.876;10.642;2022-12-10T03:08:21;2.50;99.90
39899;DHT22;25571;47.876;10.642;2022-12-10T03:11:14;2.50;99.90
39899;DHT22;25571;47.876;10.642;2022-12-10T03:16:14;2.60;99.90
39899;DHT22;25571;47.876;10.642;2022-12-10T03:18:40;2.50;99.90
39899;DHT22;25571;47.876;10.642;2022-12-10T03:21:07;2.60;99.90
39899;DHT22;25571;47.876;10.642;2022-12-10T03:23:36;2.60;99.90
39899;DHT22;25571;47.876;10.642;2022-12-10T03:26:03;2.60;99.90
39899;DHT22;25571;47.876;10.642;2022-12-10T03:28:34;2.60;99.90
39899;DHT22;25571;47.876;10.642;2022-12-10T03:31:02;2.60;99.90
39899;DHT22;25571;47.876;10.642;2022-12-10T03:33:28;2.60;99.90
39899;DHT22;25571;47.876;10.642;2022-12-10T03:35:53;2.60;99.90
39899;DHT22;25571;47.876;10.642;2022-12-10T03:38:20;2.50;99.90
39899;DHT22;25571;47.876;10.642;2022-12-10T03:40:45;2.60;99.90
39899;DHT22;25571;47.876;10.642;2022-12-10T03:43:14;2.60;99.90
39899;DHT22;25571;47.876;10.642;2022-12-10T03:45:40;2.70;99.90
39899;DHT22;25571;47.876;10.642;2022-12-10T03:48:06;2.70;99.90
39899;DHT22;25571;47.876;10.642;2022-12-10T03:50:31;2.60;99.90
39899;DHT22;25571;47.876;10.642;2022-12-10T03:52:57;2.50;99.90
39899;DHT22;25571;47.876;10.642;2022-12-10T03:55:23;2.50;99.90
39899;DHT22;25571;47.876;10.642;2022-12-10T03:57:48;2.50;99.90
39899;DHT22;25571;47.876;10.642;2022-12-10T04:00:14;2.40;99.90
39899;DHT22;25571;47.876;10.642;2022-12-10T04:02:40;2.50;99.90
39899;DHT22;25571;47.876;10.642;2022-12-10T04:05:06;2.40;99.90
39899;DHT22;25571;47.876;10.642;2022-12-10T04:07:33;2.40;99.90
39899;DHT22;25571;47.876;10.642;2022-12-10T04:09:59;2.30;99.90
39899;DHT22;25571;47.876;10.642;2022-12-10T04:12:24;2.30;99.90
39899;DHT22;25571;47.876;10.642;2022-12-10T04:14:50;2.20;99.90
39899;DHT22;25571;47.876;10.642;2022-12-10T04:17:34;2.30;99.90
39899;DHT22;25571;47.876;10.642;2022-12-10T04:20:00;2.40;99.90
39899;DHT22;25571;47.876;10.642;2022-12-10T04:22:25;2.40;99.90
39899;DHT22;25571;47.876;10.642;2022-12-10T04:25:11;2.50;99.90
39899;DHT22;25571;47.876;10.642;2022-12-10T04:27:56;2.50;99.90
39899;DHT22;25571;47.876;10.642;2022-12-10T04:30:22;2.50;99.90
39899;DHT22;25571;47.876;10.642;2022-12-10T04:32:47;2.40;99.90
39899;DHT22;25571;47.876;10.642;2022-12-10T04:35:13;2.50;99.90
39899;DHT22;25571;47.876;10.642;2022-12-10T04:37:38;2.50;99.90
39899;DHT22;25571;47.876;10.642;2022-12-10T04:40:05;2.50;99.90
39899;DHT22;25571;47.876;10.642;2022-12-10T04:42:31;2.50;99.90
39899;DHT22;25571;47.876;10.642;2022-12-10T04:44:56;2.50;99.90
39899;DHT22;25571;47.876;10.642;2022-12-10T04:47:22;2.40;99.90
39899;DHT22;25571;47.876;10.642;2022-12-10T04:49:48;2.50;99.90
39899;DHT22;25571;47.876;10.642;2022-12-10T04:52:15;2.50;99.90
39899;DHT22;25571;47.876;10.642;2022-12-10T04:54:43;2.40;99.90
39899;DHT22;25571;47.876;10.642;2022-12-10T04:57:10;2.40;99.90
39899;DHT22;25571;47.876;10.642;2022-12-10T04:59:36;2.50;99.90
39899;DHT22;25571;47.876;10.642;2022-12-10T05:02:03;2.40;99.90
39899;DHT22;25571;47.876;10.642;2022-12-10T05:04:28;2.40;99.90
39899;DHT22;25571;47.876;10.642;2022-12-10T05:06:54;2.40;99.90
39899;DHT22;25571;47.876;10.642;2022-12-10T05:09:20;2.40;99.90
39899;DHT22;25571;47.876;10.642;2022-12-10T05:11:45;2.40;99.90
39899;DHT22;25571;47.876;10.642;2022-12-10T05:14:12;2.50;99.90
39899;DHT22;25571;47.876;10.642;2022-12-10T05:16:38;2.40;99.90
39899;DHT22;25571;47.876;10.642;2022-12-10T05:19:04;2.40;99.90
39899;DHT22;25571;47.876;10.642;2022-12-10T05:21:29;2.30;99.90
39899;DHT22;25571;47.876;10.642;2022-12-10T05:24:17;2.30;99.90
39899;DHT22;25571;47.876;10.642;2022-12-10T05:26:43;2.30;99.90
39899;DHT22;25571;47.876;10.642;2022-12-10T05:29:09;2.30;99.90
39899;DHT22;25571;47.876;10.642;2022-12-10T05:31:35;2.30;99.90
39899;DHT22;25571;47.876;10.642;2022-12-10T05:34:00;2.30;99.90
39899;DHT22;25571;47.876;10.642;2022-12-10T05:36:28;2.20;99.90
39899;DHT22;25571;47.876;10.642;2022-12-10T05:38:55;2.10;99.90
39899;DHT22;25571;47.876;10.642;2022-12-10T05:41:24;1.90;99.90
39899;DHT22;25571;47.876;10.642;2022-12-10T05:43:50;2.00;99.90
39899;DHT22;25571;47.876;10.642;2022-12-10T05:46:20;2.20;99.90
39899;DHT22;25571;47.876;10.642;2022-12-10T05:48:47;2.20;99.90
39899;DHT22;25571;47.876;10.642;2022-12-10T05:51:14;2.20;99.90
39899;DHT22;25571;47.876;10.642;2022-12-10T05:53:41;2.10;99.90
39899;DHT22;25571;47.876;10.642;2022-12-10T05:56:13;2.10;99.90
39899;DHT22;25571;47.876;10.642;2022-12-10T05:58:41;2.10;99.90
39899;DHT22;25571;47.876;10.642;2022-12-10T06:01:12;2.20;99.90
39899;DHT22;25571;47.876;10.642;2022-12-10T06:03:38;2.20;99.90
39899;DHT22;25571;47.876;10.642;2022-12-10T06:06:05;2.20;99.90
39899;DHT22;25571;47.876;10.642;2022-12-10T06:08:31;2.10;99.90
39899;DHT22;25571;47.876;10.642;2022-12-10T06:11:01;2.10;99.90
39899;DHT22;25571;47.876;10.642;2022-12-10T06:13:27;2.30;99.90
39899;DHT22;25571;47.876;10.642;2022-12-10T06:15:52;2.40;99.90
39899;DHT22;25571;47.876;10.642;2022-12-10T06:18:18;2.40;99.90
39899;DHT22;25571;47.876;10.642;2022-12-10T06:20:44;2.40;99.90
39899;DHT22;25571;47.876;10.642;2022-12-10T06:23:09;2.50;99.90
39899;DHT22;25571;47.876;10.642;2022-12-10T06:25:38;2.50;99.90
39899;DHT22;25571;47.876;10.642;2022-12-10T06:28:04;2.40;99.90
39899;DHT22;25571;47.876;10.642;2022-12-10T06:30:30;2.50;99.90
39899;DHT22;25571;47.876;10.642;2022-12-10T06:32:56;2.30;99.90
39899;DHT22;25571;47.876;10.642;2022-12-10T06:35:21;2.40;99.90
39899;DHT22;25571;47.876;10.642;2022-12-10T06:37:48;2.40;99.90
39899;DHT22;25571;47.876;10.642;2022-12-10T06:40:14;2.50;99.90
39899;DHT22;25571;47.876;10.642;2022-12-10T06:42:39;2.40;99.90
39899;DHT22;25571;47.876;10.642;2022-12-10T06:45:05;2.40;99.90
39899;DHT22;25571;47.876;10.642;2022-12-10T06:47:31;2.40;99.90
39899;DHT22;25571;47.876;10.642;2022-12-10T06:49:56;2.40;99.90
39899;DHT22;25571;47.876;10.642;2022-12-10T06:52:22;2.40;99.90
39899;DHT22;25571;47.876;10.642;2022-12-10T06:54:47;2.50;99.90
39899;DHT22;25571;47.876;10.642;2022-12-10T06:57:13;2.30;99.90
39899;DHT22;25571;47.876;10.642;2022-12-10T06:59:39;2.40;99.90
39899;DHT22;25571;47.876;10.642;2022-12-10T07:02:04;2.40;99.90
39899;DHT22;25571;47.876;10.642;2022-12-10T07:04:30;2.30;99.90
39899;DHT22;25571;47.876;10.642;2022-12-10T07:06:56;2.40;99.90
39899;DHT22;25571;47.876;10.642;2022-12-10T07:09:21;2.30;99.90
39899;DHT22;25571;47.876;10.642;2022-12-10T07:11:47;2.20;99.90
39899;DHT22;25571;47.876;10.642;2022-12-10T07:14:16;2.20;99.90
39899;DHT22;25571;47.876;10.642;2022-12-10T07:16:42;2.30;99.90
39899;DHT22;25571;47.876;10.642;2022-12-10T07:19:09;2.20;99.90
39899;DHT22;25571;47.876;10.642;2022-12-10T07:21:37;2.30;99.90
39899;DHT22;25571;47.876;10.642;2022-12-10T07:24:13;2.30;99.90
39899;DHT22;25571;47.876;10.642;2022-12-10T07:26:40;2.30;99.90
39899;DHT22;25571;47.876;10.642;2022-12-10T07:29:09;2.20;99.90
39899;DHT22;25571;47.876;10.642;2022-12-10T07:31:35;2.30;99.90
39899;DHT22;25571;47.876;10.642;2022-12-10T07:34:01;2.20;99.90
39899;DHT22;25571;47.876;10.642;2022-12-10T07:36:27;2.30;99.90
39899;DHT22;25571;47.876;10.642;2022-12-10T07:38:54;2.30;99.90
39899;DHT22;25571;47.876;10.642;2022-12-10T07:41:21;2.20;99.90
39899;DHT22;25571;47.876;10.642;2022-12-10T07:43:54;2.20;99.90
39899;DHT22;25571;47.876;10.642;2022-12-10T07:46:23;2.10;99.90
39899;DHT22;25571;47.876;10.642;2022-12-10T07:48:49;2.10;99.90
39899;DHT22;25571;47.876;10.642;2022-12-10T07:51:16;2.10;99.90
39899;DHT22;25571;47.876;10.642;2022-12-10T07:53:42;2.10;99.90
39899;DHT22;25571;47.876;10.642;2022-12-10T07:56:09;2.10;99.90
39899;DHT22;25571;47.876;10.642;2022-12-10T07:58:35;2.10;99.90
39899;DHT22;25571;47.876;10.642;2022-12-10T08:01:09;2.10;99.90
39899;DHT22;25571;47.876;10.642;2022-12-10T08:03:35;2.10;99.90
39899;DHT22;25571;47.876;10.642;2022-12-10T08:06:06;2.20;99.90
39899;DHT22;25571;47.876;10.642;2022-12-10T08:08:33;1.90;99.90
39899;DHT22;25571;47.876;10.642;2022-12-10T08:11:03;2.00;99.90
39899;DHT22;25571;47.876;10.642;2022-12-10T08:13:29;2.00;99.90
39899;DHT22;25571;47.876;10.642;2022-12-10T08:16:01;2.00;99.90
39899;DHT22;25571;47.876;10.642;2022-12-10T08:18:27;2.00;99.90
39899;DHT22;25571;47.876;10.642;2022-12-10T08:20:53;2.10;99.90
39899;DHT22;25571;47.876;10.642;2022-12-10T08:23:18;2.10;99.90
39899;DHT22;25571;47.876;10.642;2022-12-10T08:25:44;2.10;99.90
39899;DHT22;25571;47.876;10.642;2022-12-10T08:28:09;2.10;99.90
39899;DHT22;25571;47.876;10.642;2022-12-10T08:30:35;2.20;99.90
39899;DHT22;25571;47.876;10.642;2022-12-10T08:33:01;2.10;99.90
39899;DHT22;25571;47.876;10.642;2022-12-10T08:35:26;2.00;99.90
39899;DHT22;25571;47.876;10.642;2022-12-10T08:37:52;2.00;99.90
39899;DHT22;25571;47.876;10.642;2022-12-10T08:40:17;2.00;99.90
39899;DHT22;25571;47.876;10.642;2022-12-10T08:42:43;1.90;99.90
39899;DHT22;25571;47.876;10.642;2022-12-10T08:45:09;1.90;99.90
39899;DHT22;25571;47.876;10.642;2022-12-10T08:47:35;1.90;99.90
39899;DHT22;25571;47.876;10.642;2022-12-10T08:50:00;2.00;99.90
39899;DHT22;25571;47.876;10.642;2022-12-10T08:52:26;2.00;99.90
39899;DHT22;25571;47.876;10.642;2022-12-10T08:54:54;2.00;99.90
39899;DHT22;25571;47.876;10.642;2022-12-10T08:57:20;2.00;99.90
39899;DHT22;25571;47.876;10.642;2022-12-10T08:59:45;2.00;99.90
39899;DHT22;25571;47.876;10.642;2022-12-10T09:02:11;2.00;99.90
39899;DHT22;25571;47.876;10.642;2022-12-10T09:04:37;2.00;99.90
39899;DHT22;25571;47.876;10.642;2022-12-10T09:07:04;2.00;99.90
39899;DHT22;25571;47.876;10.642;2022-12-10T09:09:31;2.10;99.90
39899;DHT22;25571;47.876;10.642;2022-12-10T09:11:57;2.10;99.90
39899;DHT22;25571;47.876;10.642;2022-12-10T09:14:23;2.10;99.90
39899;DHT22;25571;47.876;10.642;2022-12-10T09:16:49;2.10;99.90
39899;DHT22;25571;47.876;10.642;2022-12-10T09:19:15;2.10;99.90
39899;DHT22;25571;47.876;10.642;2022-12-10T09:21:41;2.20;99.90
39899;DHT22;25571;47.876;10.642;2022-12-10T09:24:06;2.20;99.90
39899;DHT22;25571;47.876;10.642;2022-12-10T09:26:32;2.20;99.90
39899;DHT22;25571;47.876;10.642;2022-12-10T09:28:58;2.20;99.90
39899;DHT22;25571;47.876;10.642;2022-12-10T09:31:25;2.30;99.90
39899;DHT22;25571;47.876;10.642;2022-12-10T09:33:52;2.30;99.90
39899;DHT22;25571;47.876;10.642;2022-12-10T09:36:18;2.40;99.90
39899;DHT22;25571;47.876;10.642;2022-12-10T09:38:44;2.30;99.90
39899;DHT22;25571;47.876;10.642;2022-12-10T09:49:36;2.30;99.90
39899;DHT22;25571;47.876;10.642;2022-12-10T09:52:09;2.40;99.90
39899;DHT22;25571;47.876;10.642;2022-12-10T09:54:41;2.30;99.90
39899;DHT22;25571;47.876;10.642;2022-12-10T09:57:24;2.30;99.90
39899;DHT22;25571;47.876;10.642;2022-12-10T09:59:52;2.20;99.90
39899;DHT22;25571;47.876;10.642;2022-12-10T10:02:24;2.20;99.90
39899;DHT22;25571;47.876;10.642;2022-12-10T10:04:53;2.30;99.90
39899;DHT22;25571;47.876;10.642;2022-12-10T10:07:28;2.30;99.90
39899;DHT22;25571;47.876;10.642;2022-12-10T10:10:01;2.40;99.90
39899;DHT22;25571;47.876;10.642;2022-12-10T10:12:28;2.40;99.90
39899;DHT22;25571;47.876;10.642;2022-12-10T10:14:53;2.30;99.90
39899;DHT22;25571;47.876;10.642;2022-12-10T10:19:46;2.30;99.90
39899;DHT22;25571;47.876;10.642;2022-12-10T10:22:12;2.30;99.90
39899;DHT22;25571;47.876;10.642;2022-12-10T10:24:41;2.40;99.90
39899;DHT22;25571;47.876;10.642;2022-12-10T10:27:24;2.50;99.90
39899;DHT22;25571;47.876;10.642;2022-12-10T10:29:54;2.30;99.90
39899;DHT22;25571;47.876;10.642;2022-12-10T10:32:25;2.30;99.90
39899;DHT22;25571;47.876;10.642;2022-12-10T10:35:48;2.40;99.90
39899;DHT22;25571;47.876;10.642;2022-12-10T10:38:07;2.40;99.90
39899;DHT22;25571;47.876;10.642;2022-12-10T10:40:43;2.30;99.90
39899;DHT22;25571;47.876;10.642;2022-12-10T10:43:20;2.40;99.90
39899;DHT22;25571;47.876;10.642;2022-12-10T10:45:59;2.40;99.90
39899;DHT22;25571;47.876;10.642;2022-12-10T10:48:27;2.50;99.90
39899;DHT22;25571;47.876;10.642;2022-12-10T10:50:55;2.40;99.90
39899;DHT22;25571;47.876;10.642;2022-12-10T10:59:20;2.40;99.90
39899;DHT22;25571;47.876;10.642;2022-12-10T11:01:54;2.40;99.90
39899;DHT22;25571;47.876;10.642;2022-12-10T11:04:36;2.40;99.90
39899;DHT22;25571;47.876;10.642;2022-12-10T11:07:05;2.40;99.90
39899;DHT22;25571;47.876;10.642;2022-12-10T11:09:35;2.40;99.90
39899;DHT22;25571;47.876;10.642;2022-12-10T11:12:05;2.50;99.90
39899;DHT22;25571;47.876;10.642;2022-12-10T11:14:44;2.40;99.90
39899;DHT22;25571;47.876;10.642;2022-12-10T11:19:36;2.20;99.90
39899;DHT22;25571;47.876;10.642;2022-12-10T11:22:19;2.30;99.90
39899;DHT22;25571;47.876;10.642;2022-12-10T11:24:46;2.30;99.90
39899;DHT22;25571;47.876;10.642;2022-12-10T11:30:01;2.30;99.90
39899;DHT22;25571;47.876;10.642;2022-12-10T11:32:35;2.30;99.90
39899;DHT22;25571;47.876;10.642;2022-12-10T11:38:09;2.30;99.90
39899;DHT22;25571;47.876;10.642;2022-12-10T11:43:38;2.20;99.90
39899;DHT22;25571;47.876;10.642;2022-12-10T11:52:00;2.10;99.90
39899;DHT22;25571;47.876;10.642;2022-12-10T12:09:05;2.00;99.90
39899;DHT22;25571;47.876;10.642;2022-12-10T12:11:49;2.00;99.90
39899;DHT22;25571;47.876;10.642;2022-12-10T12:14:44;2.00;99.90
39899;DHT22;25571;47.876;10.642;2022-12-10T12:17:26;2.00;99.90
39899;DHT22;25571;47.876;10.642;2022-12-10T12:22:36;2.00;99.90
39899;DHT22;25571;47.876;10.642;2022-12-10T12:25:22;2.00;99.90
39899;DHT22;25571;47.876;10.642;2022-12-10T12:27:52;1.90;99.90
39899;DHT22;25571;47.876;10.642;2022-12-10T12:30:20;2.00;99.90
39899;DHT22;25571;47.876;10.642;2022-12-10T12:33:11;1.90;99.90
39899;DHT22;25571;47.876;10.642;2022-12-10T12:35:46;1.90;99.90
39899;DHT22;25571;47.876;10.642;2022-12-10T12:38:41;2.00;99.90
39899;DHT22;25571;47.876;10.642;2022-12-10T12:41:30;2.00;99.90
39899;DHT22;25571;47.876;10.642;2022-12-10T12:46:39;2.00;99.90
39899;DHT22;25571;47.876;10.642;2022-12-10T12:49:24;2.10;99.90
39899;DHT22;25571;47.876;10.642;2022-12-10T12:52:00;2.00;99.90
39899;DHT22;25571;47.876;10.642;2022-12-10T12:54:26;1.90;99.90
39899;DHT22;25571;47.876;10.642;2022-12-10T12:57:14;1.90;99.90
39899;DHT22;25571;47.876;10.642;2022-12-10T13:00:03;1.90;99.90
39899;DHT22;25571;47.876;10.642;2022-12-10T13:05:30;2.10;99.90
39899;DHT22;25571;47.876;10.642;2022-12-10T13:11:15;2.10;99.90
39899;DHT22;25571;47.876;10.642;2022-12-10T13:22:08;2.10;99.90
39899;DHT22;25571;47.876;10.642;2022-12-10T13:32:18;2.10;99.90
39899;DHT22;25571;47.876;10.642;2022-12-10T13:34:45;2.10;99.90
39899;DHT22;25571;47.876;10.642;2022-12-10T13:37:17;2.10;99.90
39899;DHT22;25571;47.876;10.642;2022-12-10T13:42:37;2.10;99.90
39899;DHT22;25571;47.876;10.642;2022-12-10T13:48:22;2.20;99.90
39899;DHT22;25571;47.876;10.642;2022-12-10T13:56:27;2.20;99.90
39899;DHT22;25571;47.876;10.642;2022-12-10T14:01:58;2.20;99.90
39899;DHT22;25571;47.876;10.642;2022-12-10T14:07:25;2.20;99.90
39899;DHT22;25571;47.876;10.642;2022-12-10T14:09:53;2.20;99.90
39899;DHT22;25571;47.876;10.642;2022-12-10T14:15:00;2.10;99.90
39899;DHT22;25571;47.876;10.642;2022-12-10T14:17:41;1.90;99.90
39899;DHT22;25571;47.876;10.642;2022-12-10T14:20:14;1.90;99.90
39899;DHT22;25571;47.876;10.642;2022-12-10T14:22:47;1.90;99.90
39899;DHT22;25571;47.876;10.642;2022-12-10T14:25:15;2.00;99.90
39899;DHT22;25571;47.876;10.642;2022-12-10T14:27:42;2.00;99.90
39899;DHT22;25571;47.876;10.642;2022-12-10T14:30:21;1.90;99.90
39899;DHT22;25571;47.876;10.642;2022-12-10T14:32:48;1.80;99.90
39899;DHT22;25571;47.876;10.642;2022-12-10T14:35:18;1.80;99.90
39899;DHT22;25571;47.876;10.642;2022-12-10T14:37:46;1.80;99.90
39899;DHT22;25571;47.876;10.642;2022-12-10T14:40:39;1.80;99.90
39899;DHT22;25571;47.876;10.642;2022-12-10T14:43:15;1.80;99.90
39899;DHT22;25571;47.876;10.642;2022-12-10T14:45:54;1.90;99.90
39899;DHT22;25571;47.876;10.642;2022-12-10T14:48:21;1.90;99.90
39899;DHT22;25571;47.876;10.642;2022-12-10T14:50:47;1.90;99.90
39899;DHT22;25571;47.876;10.642;2022-12-10T14:53:16;1.80;99.90
39899;DHT22;25571;47.876;10.642;2022-12-10T14:55:43;1.80;99.90
39899;DHT22;25571;47.876;10.642;2022-12-10T14:58:18;1.80;99.90
39899;DHT22;25571;47.876;10.642;2022-12-10T15:00:46;1.80;99.90
39899;DHT22;25571;47.876;10.642;2022-12-10T15:03:26;1.80;99.90
39899;DHT22;25571;47.876;10.642;2022-12-10T15:06:06;1.80;99.90
39899;DHT22;25571;47.876;10.642;2022-12-10T15:08:33;1.70;99.90
39899;DHT22;25571;47.876;10.642;2022-12-10T15:11:01;1.70;99.90
39899;DHT22;25571;47.876;10.642;2022-12-10T15:13:32;1.60;99.90
39899;DHT22;25571;47.876;10.642;2022-12-10T15:15:59;1.70;99.90
39899;DHT22;25571;47.876;10.642;2022-12-10T15:18:38;1.60;99.90
39899;DHT22;25571;47.876;10.642;2022-12-10T15:21:09;1.30;99.90
39899;DHT22;25571;47.876;10.642;2022-12-10T15:23:35;1.50;99.90
39899;DHT22;25571;47.876;10.642;2022-12-10T15:26:27;1.40;99.90
39899;DHT22;25571;47.876;10.642;2022-12-10T15:31:53;1.50;99.90
39899;DHT22;25571;47.876;10.642;2022-12-10T15:34:20;1.50;99.90
39899;DHT22;25571;47.876;10.642;2022-12-10T15:36:49;1.40;99.90
39899;DHT22;25571;47.876;10.642;2022-12-10T15:39:23;1.40;99.90
39899;DHT22;25571;47.876;10.642;2022-12-10T15:42:06;1.40;99.90
39899;DHT22;25571;47.876;10.642;2022-12-10T15:44:34;1.40;99.90
39899;DHT22;25571;47.876;10.642;2022-12-10T15:47:12;1.40;99.90
39899;DHT22;25571;47.876;10.642;2022-12-10T15:49:40;1.20;99.90
39899;DHT22;25571;47.876;10.642;2022-12-10T15:52:09;1.00;99.90
39899;DHT22;25571;47.876;10.642;2022-12-10T15:54:39;1.10;99.90
39899;DHT22;25571;47.876;10.642;2022-12-10T15:57:15;1.10;99.90
39899;DHT22;25571;47.876;10.642;2022-12-10T15:59:45;1.20;99.90
39899;DHT22;25571;47.876;10.642;2022-12-10T16:02:39;1.20;99.90
39899;DHT22;25571;47.876;10.642;2022-12-10T16:07:52;1.30;99.90
39899;DHT22;25571;47.876;10.642;2022-12-10T16:10:20;1.30;99.90
39899;DHT22;25571;47.876;10.642;2022-12-10T16:12:49;1.30;99.90
39899;DHT22;25571;47.876;10.642;2022-12-10T16:15:17;1.30;99.90
39899;DHT22;25571;47.876;10.642;2022-12-10T16:17:43;1.30;99.90
39899;DHT22;25571;47.876;10.642;2022-12-10T16:22:40;1.20;99.90
39899;DHT22;25571;47.876;10.642;2022-12-10T16:25:06;1.20;99.90
39899;DHT22;25571;47.876;10.642;2022-12-10T16:27:32;1.10;99.90
39899;DHT22;25571;47.876;10.642;2022-12-10T16:29:58;1.20;99.90
39899;DHT22;25571;47.876;10.642;2022-12-10T16:32:24;1.10;99.90
39899;DHT22;25571;47.876;10.642;2022-12-10T16:34:49;1.20;99.90
39899;DHT22;25571;47.876;10.642;2022-12-10T16:37:17;1.00;99.90
39899;DHT22;25571;47.876;10.642;2022-12-10T16:39:42;1.10;99.90
39899;DHT22;25571;47.876;10.642;2022-12-10T16:42:26;1.00;99.90
39899;DHT22;25571;47.876;10.642;2022-12-10T16:44:51;1.10;99.90
39899;DHT22;25571;47.876;10.642;2022-12-10T16:47:17;1.20;99.90
39899;DHT22;25571;47.876;10.642;2022-12-10T16:49:43;1.10;99.90
39899;DHT22;25571;47.876;10.642;2022-12-10T16:52:13;1.10;99.90
39899;DHT22;25571;47.876;10.642;2022-12-10T16:54:39;1.20;99.90
39899;DHT22;25571;47.876;10.642;2022-12-10T16:57:11;1.20;99.90
39899;DHT22;25571;47.876;10.642;2022-12-10T16:59:37;1.20;99.90
39899;DHT22;25571;47.876;10.642;2022-12-10T17:02:05;1.10;99.90
39899;DHT22;25571;47.876;10.642;2022-12-10T17:04:31;1.20;99.90
39899;DHT22;25571;47.876;10.642;2022-12-10T17:06:56;1.20;99.90
39899;DHT22;25571;47.876;10.642;2022-12-10T17:09:22;1.20;99.90
39899;DHT22;25571;47.876;10.642;2022-12-10T17:11:47;1.10;99.90
39899;DHT22;25571;47.876;10.642;2022-12-10T17:16:49;1.10;99.90
39899;DHT22;25571;47.876;10.642;2022-12-10T17:19:15;1.10;99.90
39899;DHT22;25571;47.876;10.642;2022-12-10T17:21:41;1.20;99.90
39899;DHT22;25571;47.876;10.642;2022-12-10T17:24:06;1.10;99.90
39899;DHT22;25571;47.876;10.642;2022-12-10T17:26:34;1.20;99.90
39899;DHT22;25571;47.876;10.642;2022-12-10T17:29:05;1.10;99.90
39899;DHT22;25571;47.876;10.642;2022-12-10T17:31:31;1.10;99.90
39899;DHT22;25571;47.876;10.642;2022-12-10T17:33:57;1.20;99.90
39899;DHT22;25571;47.876;10.642;2022-12-10T17:36:23;1.20;99.90
39899;DHT22;25571;47.876;10.642;2022-12-10T17:38:49;1.10;99.90
39899;DHT22;25571;47.876;10.642;2022-12-10T17:41:14;1.10;99.90
39899;DHT22;25571;47.876;10.642;2022-12-10T17:43:41;1.10;99.90
39899;DHT22;25571;47.876;10.642;2022-12-10T17:46:10;1.10;99.90
39899;DHT22;25571;47.876;10.642;2022-12-10T17:48:36;1.20;99.90
39899;DHT22;25571;47.876;10.642;2022-12-10T17:51:02;1.20;99.90
39899;DHT22;25571;47.876;10.642;2022-12-10T17:53:28;1.20;99.90
39899;DHT22;25571;47.876;10.642;2022-12-10T17:55:58;1.20;99.90